Flight Track Log - Related Links

Times and Time Zones

All times are in EDT time to prevent confusion due to time zone crossing. See the ASQ6117 flight status page for this flight to view local times or setup timezone preferences in your user account.

Time Position Orientation Groundspeed Altitude Reporting Facility
EDT Latitude Longitude Course Direction KTS MPH feet Rate Location/Type
Mon 11:32:50 AM 41.9333 -87.9167 187° South 169 194 2,600  Level Chicago TRACON
Mon 11:33:50 AM 41.8833 -87.9333 194° South 209 241 4,200 1,597 Climbing Chicago TRACON
Mon 11:34:54 AM 41.8044 -87.9675 198° South 254 292 5,900 1,824 Climbing Chicago Center
Mon 11:38:00 AM 41.5667 -88.0122 184° South 292 336 11,800 1,534 Climbing Chicago Center
Mon 11:39:00 AM 41.3285 -88.2776 201° Southwest  Level Estimated
Mon 11:40:00 AM 41.2355 -88.3564 187° South  Level Estimated
Mon 11:40:03 AM 41.3997 -88.0417 188° South 310 357 13,800  Level Kansas City Center
Mon 11:41:07 AM 41.2739 -88.0583 186° South 353 406 14,900 952 Climbing Chicago Center
Mon 11:42:09 AM 41.1728 -88.0744 187° South 364 419 15,800 968 Climbing Chicago Center
Mon 11:43:11 AM 41.0608 -88.0908 186° South 373 429 16,900 919 Climbing Chicago Center
Mon 11:44:13 AM 40.9572 -88.1061 186° South 374 430 17,700 871 Climbing Chicago Center
Mon 11:45:00 AM 40.7171 -88.1363 184° South  Level FlightAware Approximate
Mon 11:45:15 AM 40.8478 -88.1244 187° South 374 430 18,700  Level Chicago Center
Mon 11:46:17 AM 40.7422 -88.1397 186° South 378 435 19,800 1,056 Climbing Chicago Center
Mon 11:47:20 AM 40.6372 -88.1558 187° South 378 435 20,900 1,008 Climbing Chicago Center
Mon 11:48:22 AM 40.5353 -88.1847 192° South 377 434 21,900 532 Climbing Chicago Center
Mon 11:49:24 AM 40.4319 -88.2350 200° South 388 447 22,000 48 Climbing Chicago Center
Mon 11:50:26 AM 40.2997 -88.2989 200° South 419 482 22,000  Level Chicago Center
Mon 11:51:28 AM 40.1858 -88.3519 200° South 430 495 22,000  Level Chicago Center
Mon 11:52:30 AM 40.0844 -88.3994 200° South 438 504 22,000  Level Chicago Center
Mon 11:53:32 AM 39.9475 -88.4631 200° South 436 502 22,000  Level Chicago Center
Mon 11:54:33 AM 39.8317 -88.5139 199° South 434 499 22,000  Level Kansas City Center
Mon 11:55:35 AM 39.7153 -88.5706 201° Southwest 435 501 22,000  Level Kansas City Center
Mon 11:56:38 AM 39.6014 -88.6247 200° South 438 504 22,000  Level Kansas City Center
Mon 11:57:38 AM 39.5061 -88.7211 218° Southwest 432 497 22,000 -288 Level Kansas City Center
Mon 11:58:43 AM 39.4036 -88.8292 219° Southwest 430 495 21,400 -1,200 Descending Kansas City Center
Mon 11:59:43 AM 39.3275 -88.9086 219° Southwest 414 476 19,500 -2,361 Descending Kansas City Center
Mon 12:00:45 PM 39.2394 -89.0056 220° Southwest 364 419 16,600 -2,429 Descending Kansas City Center
Mon 12:01:49 PM 39.1661 -89.0853 220° Southwest 352 405 14,400 -2,160 Descending Kansas City Center
Mon 12:02:50 PM 39.0917 -89.1706 222° Southwest 343 395 12,100 -1,776 Descending Kansas City Center
Mon 12:03:54 PM 39.0656 -89.2844 254° West 334 384 10,700 -1,065 Descending Kansas City Center
Mon 12:04:54 PM 39.0400 -89.4008 254° West 319 367 9,900 -843 Descending Kansas City Center
Mon 12:05:55 PM 39.0197 -89.5000 255° West 291 335 9,000 -432 Descending Kansas City Center
Mon 12:06:59 PM 38.9933 -89.6003 251° West 280 322 9,000  Level Kansas City Center
Mon 12:08:02 PM 38.9333 -89.6728 223° Southwest 294 338 9,000 -242 Level Kansas City Center
Mon 12:09:03 PM 38.8775 -89.7444 225° Southwest 291 335 8,500 -484 Descending Kansas City Center
Mon 12:10:06 PM 38.8206 -89.8158 224° Southwest 288 331 8,000 -726 Descending Kansas City Center
Mon 12:11:07 PM 38.7644 -89.8867 225° Southwest 283 326 7,000 -1,152 Descending Kansas City Center
Mon 12:12:11 PM 38.7100 -89.9553 225° Southwest 278 320 5,600 -1,344 Descending Kansas City Center
Mon 12:13:12 PM 38.6633 -90.0511 238° Southwest 268 308 4,200 -1,033 Descending Kansas City Center
Mon 12:14:13 PM 38.6386 -90.1217 246° West 222 255 3,500 -768 Descending Kansas City Center
Mon 12:15:17 PM 38.6547 -90.1708 293° West 159 183 2,600 -672 Descending Kansas City Center
Mon 12:16:18 PM 38.6778 -90.2169 303° West 153 176 2,100 -248 Descending Kansas City Center
Mon 12:17:18 PM 38.7003 -90.2622 302° West 153 176 2,100 -432 Level Kansas City Center
Mon 12:18:23 PM 38.7228 -90.3064 303° West 150 173 1,200 -720 Descending Kansas City Center
Mon 12:19:23 PM 38.7464 -90.3553 302° West 150 173 600 -600 Descending Kansas City Center

Login

Don't have an account? Register now (free) for customized features, flight alerts, and more!